sensor_id;sensor_type;location;lat;lon;timestamp;temperature;humidity
20481;DHT22;10399;50.754;3.366;2023-06-10T00:02:26;24.10;99.90
20481;DHT22;10399;50.754;3.366;2023-06-10T00:04:54;24.10;99.90
20481;DHT22;10399;50.754;3.366;2023-06-10T00:07:22;24.00;99.90
20481;DHT22;10399;50.754;3.366;2023-06-10T00:09:49;24.00;99.90
20481;DHT22;10399;50.754;3.366;2023-06-10T00:12:17;24.00;99.90
20481;DHT22;10399;50.754;3.366;2023-06-10T00:14:44;24.00;99.90
20481;DHT22;10399;50.754;3.366;2023-06-10T00:17:11;23.80;99.90
20481;DHT22;10399;50.754;3.366;2023-06-10T00:19:39;23.80;99.90
20481;DHT22;10399;50.754;3.366;2023-06-10T00:22:08;23.70;99.90
20481;DHT22;10399;50.754;3.366;2023-06-10T00:24:37;23.70;99.90
20481;DHT22;10399;50.754;3.366;2023-06-10T00:27:05;23.80;99.90
20481;DHT22;10399;50.754;3.366;2023-06-10T00:29:34;23.70;99.90
20481;DHT22;10399;50.754;3.366;2023-06-10T00:32:01;23.50;99.90
20481;DHT22;10399;50.754;3.366;2023-06-10T00:34:29;23.50;99.90
20481;DHT22;10399;50.754;3.366;2023-06-10T00:36:56;23.60;99.90
20481;DHT22;10399;50.754;3.366;2023-06-10T00:39:23;23.60;99.90
20481;DHT22;10399;50.754;3.366;2023-06-10T00:41:50;23.60;99.90
20481;DHT22;10399;50.754;3.366;2023-06-10T00:44:17;23.60;99.90
20481;DHT22;10399;50.754;3.366;2023-06-10T00:46:44;23.60;99.90
20481;DHT22;10399;50.754;3.366;2023-06-10T00:49:12;23.60;99.90
20481;DHT22;10399;50.754;3.366;2023-06-10T00:51:39;23.50;99.90
20481;DHT22;10399;50.754;3.366;2023-06-10T00:54:07;23.60;99.90
20481;DHT22;10399;50.754;3.366;2023-06-10T00:56:35;23.60;99.90
20481;DHT22;10399;50.754;3.366;2023-06-10T00:59:03;23.70;99.90
20481;DHT22;10399;50.754;3.366;2023-06-10T01:01:30;23.70;99.90
20481;DHT22;10399;50.754;3.366;2023-06-10T01:03:59;23.60;99.90
20481;DHT22;10399;50.754;3.366;2023-06-10T01:09:18;23.50;99.90
20481;DHT22;10399;50.754;3.366;2023-06-10T01:12:10;23.40;99.90
20481;DHT22;10399;50.754;3.366;2023-06-10T01:14:38;23.30;99.90
20481;DHT22;10399;50.754;3.366;2023-06-10T01:17:12;23.30;99.90
20481;DHT22;10399;50.754;3.366;2023-06-10T01:19:39;23.30;99.90
20481;DHT22;10399;50.754;3.366;2023-06-10T01:22:07;23.30;99.90
20481;DHT22;10399;50.754;3.366;2023-06-10T01:24:34;23.20;99.90
20481;DHT22;10399;50.754;3.366;2023-06-10T01:27:05;23.00;99.90
20481;DHT22;10399;50.754;3.366;2023-06-10T01:29:42;23.10;99.90
20481;DHT22;10399;50.754;3.366;2023-06-10T01:32:18;23.20;99.90
20481;DHT22;10399;50.754;3.366;2023-06-10T01:34:47;23.00;99.90
20481;DHT22;10399;50.754;3.366;2023-06-10T01:37:17;23.00;99.90
20481;DHT22;10399;50.754;3.366;2023-06-10T01:39:46;23.10;99.90
20481;DHT22;10399;50.754;3.366;2023-06-10T01:42:14;23.10;99.90
20481;DHT22;10399;50.754;3.366;2023-06-10T01:44:42;23.20;99.90
20481;DHT22;10399;50.754;3.366;2023-06-10T01:47:09;23.20;99.90
20481;DHT22;10399;50.754;3.366;2023-06-10T01:49:36;23.10;99.90
20481;DHT22;10399;50.754;3.366;2023-06-10T01:52:03;23.00;99.90
20481;DHT22;10399;50.754;3.366;2023-06-10T01:54:30;23.00;99.90
20481;DHT22;10399;50.754;3.366;2023-06-10T01:56:58;23.00;99.90
20481;DHT22;10399;50.754;3.366;2023-06-10T01:59:25;23.00;99.90
20481;DHT22;10399;50.754;3.366;2023-06-10T02:01:53;23.00;99.90
20481;DHT22;10399;50.754;3.366;2023-06-10T02:04:20;23.00;99.90
20481;DHT22;10399;50.754;3.366;2023-06-10T02:06:47;22.80;99.90
20481;DHT22;10399;50.754;3.366;2023-06-10T02:09:14;22.80;99.90
20481;DHT22;10399;50.754;3.366;2023-06-10T02:11:42;22.80;99.90
20481;DHT22;10399;50.754;3.366;2023-06-10T02:14:09;22.70;99.90
20481;DHT22;10399;50.754;3.366;2023-06-10T02:16:36;22.60;99.90
20481;DHT22;10399;50.754;3.366;2023-06-10T02:19:05;22.70;99.90
20481;DHT22;10399;50.754;3.366;2023-06-10T02:21:33;22.60;99.90
20481;DHT22;10399;50.754;3.366;2023-06-10T02:24:01;22.60;99.90
20481;DHT22;10399;50.754;3.366;2023-06-10T02:26:28;22.60;99.90
20481;DHT22;10399;50.754;3.366;2023-06-10T02:28:55;22.70;99.90
20481;DHT22;10399;50.754;3.366;2023-06-10T02:31:22;22.50;99.90
20481;DHT22;10399;50.754;3.366;2023-06-10T02:33:52;22.60;99.90
20481;DHT22;10399;50.754;3.366;2023-06-10T02:36:19;22.50;99.90
20481;DHT22;10399;50.754;3.366;2023-06-10T02:38:48;22.40;99.90
20481;DHT22;10399;50.754;3.366;2023-06-10T02:41:15;22.30;99.90
20481;DHT22;10399;50.754;3.366;2023-06-10T02:43:42;22.20;99.90
20481;DHT22;10399;50.754;3.366;2023-06-10T02:46:09;22.30;99.90
20481;DHT22;10399;50.754;3.366;2023-06-10T02:48:43;22.30;99.90
20481;DHT22;10399;50.754;3.366;2023-06-10T02:51:10;22.20;99.90
20481;DHT22;10399;50.754;3.366;2023-06-10T02:53:37;22.20;99.90
20481;DHT22;10399;50.754;3.366;2023-06-10T02:56:04;22.20;99.90
20481;DHT22;10399;50.754;3.366;2023-06-10T02:58:32;22.20;99.90
20481;DHT22;10399;50.754;3.366;2023-06-10T03:00:59;22.20;99.90
20481;DHT22;10399;50.754;3.366;2023-06-10T03:03:26;22.20;99.90
20481;DHT22;10399;50.754;3.366;2023-06-10T03:05:54;22.20;99.90
20481;DHT22;10399;50.754;3.366;2023-06-10T03:08:23;22.10;99.90
20481;DHT22;10399;50.754;3.366;2023-06-10T03:10:50;22.00;99.90
20481;DHT22;10399;50.754;3.366;2023-06-10T03:13:17;21.90;99.90
20481;DHT22;10399;50.754;3.366;2023-06-10T03:15:44;22.00;99.90
20481;DHT22;10399;50.754;3.366;2023-06-10T03:18:12;21.90;99.90
20481;DHT22;10399;50.754;3.366;2023-06-10T03:20:39;21.80;99.90
20481;DHT22;10399;50.754;3.366;2023-06-10T03:23:06;21.90;99.90
20481;DHT22;10399;50.754;3.366;2023-06-10T03:25:34;21.90;99.90
20481;DHT22;10399;50.754;3.366;2023-06-10T03:28:01;21.90;99.90
20481;DHT22;10399;50.754;3.366;2023-06-10T03:30:28;21.90;99.90
20481;DHT22;10399;50.754;3.366;2023-06-10T03:32:55;21.90;99.90
20481;DHT22;10399;50.754;3.366;2023-06-10T03:35:23;21.90;99.90
20481;DHT22;10399;50.754;3.366;2023-06-10T03:37:50;21.90;99.90
20481;DHT22;10399;50.754;3.366;2023-06-10T03:40:17;21.90;99.90
20481;DHT22;10399;50.754;3.366;2023-06-10T03:42:44;21.90;99.90
20481;DHT22;10399;50.754;3.366;2023-06-10T03:45:11;21.90;99.90
20481;DHT22;10399;50.754;3.366;2023-06-10T03:47:38;21.60;99.90
20481;DHT22;10399;50.754;3.366;2023-06-10T03:50:08;21.70;99.90
20481;DHT22;10399;50.754;3.366;2023-06-10T03:52:37;21.70;99.90
20481;DHT22;10399;50.754;3.366;2023-06-10T03:55:04;21.80;99.90
20481;DHT22;10399;50.754;3.366;2023-06-10T03:57:32;21.90;99.90
20481;DHT22;10399;50.754;3.366;2023-06-10T03:59:59;21.90;99.90
20481;DHT22;10399;50.754;3.366;2023-06-10T04:02:26;21.90;99.90
20481;DHT22;10399;50.754;3.366;2023-06-10T04:04:53;21.90;99.90
20481;DHT22;10399;50.754;3.366;2023-06-10T04:07:20;21.90;99.90
20481;DHT22;10399;50.754;3.366;2023-06-10T04:09:47;21.90;99.90
20481;DHT22;10399;50.754;3.366;2023-06-10T04:12:14;21.90;99.90
20481;DHT22;10399;50.754;3.366;2023-06-10T04:14:43;22.00;99.90
20481;DHT22;10399;50.754;3.366;2023-06-10T04:17:10;21.90;99.90
20481;DHT22;10399;50.754;3.366;2023-06-10T04:19:37;22.00;99.90
20481;DHT22;10399;50.754;3.366;2023-06-10T04:22:04;21.90;99.90
20481;DHT22;10399;50.754;3.366;2023-06-10T04:24:32;22.00;99.90
20481;DHT22;10399;50.754;3.366;2023-06-10T04:26:58;22.10;99.90
20481;DHT22;10399;50.754;3.366;2023-06-10T04:29:26;22.20;99.90
20481;DHT22;10399;50.754;3.366;2023-06-10T04:31:53;22.30;99.90
20481;DHT22;10399;50.754;3.366;2023-06-10T04:34:20;22.20;99.90
20481;DHT22;10399;50.754;3.366;2023-06-10T04:36:47;22.30;99.90
20481;DHT22;10399;50.754;3.366;2023-06-10T04:39:14;22.30;99.90
20481;DHT22;10399;50.754;3.366;2023-06-10T04:41:43;22.40;99.90
20481;DHT22;10399;50.754;3.366;2023-06-10T04:44:10;22.50;99.90
20481;DHT22;10399;50.754;3.366;2023-06-10T04:46:37;22.50;99.90
20481;DHT22;10399;50.754;3.366;2023-06-10T04:49:05;22.50;99.90
20481;DHT22;10399;50.754;3.366;2023-06-10T04:51:32;22.50;99.90
20481;DHT22;10399;50.754;3.366;2023-06-10T04:53:59;22.50;99.90
20481;DHT22;10399;50.754;3.366;2023-06-10T04:56:31;22.50;99.90
20481;DHT22;10399;50.754;3.366;2023-06-10T04:58:58;22.80;99.90
20481;DHT22;10399;50.754;3.366;2023-06-10T05:01:25;22.80;99.90
20481;DHT22;10399;50.754;3.366;2023-06-10T05:03:52;22.80;99.90
20481;DHT22;10399;50.754;3.366;2023-06-10T05:06:20;22.90;99.90
20481;DHT22;10399;50.754;3.366;2023-06-10T05:08:47;22.80;99.90
20481;DHT22;10399;50.754;3.366;2023-06-10T05:11:14;22.90;99.90
20481;DHT22;10399;50.754;3.366;2023-06-10T05:13:42;22.90;99.90
20481;DHT22;10399;50.754;3.366;2023-06-10T05:16:10;22.90;99.90
20481;DHT22;10399;50.754;3.366;2023-06-10T05:18:38;22.90;99.90
20481;DHT22;10399;50.754;3.366;2023-06-10T05:21:05;22.90;99.90
20481;DHT22;10399;50.754;3.366;2023-06-10T05:23:32;23.10;99.90
20481;DHT22;10399;50.754;3.366;2023-06-10T05:25:59;23.10;99.90
20481;DHT22;10399;50.754;3.366;2023-06-10T05:28:27;23.10;99.90
20481;DHT22;10399;50.754;3.366;2023-06-10T05:30:54;23.20;99.90
20481;DHT22;10399;50.754;3.366;2023-06-10T05:33:21;23.20;99.90
20481;DHT22;10399;50.754;3.366;2023-06-10T05:35:48;23.30;99.90
20481;DHT22;10399;50.754;3.366;2023-06-10T05:38:15;23.40;99.90
20481;DHT22;10399;50.754;3.366;2023-06-10T05:40:42;23.40;99.90
20481;DHT22;10399;50.754;3.366;2023-06-10T05:43:09;23.30;99.90
20481;DHT22;10399;50.754;3.366;2023-06-10T05:45:38;23.40;99.90
20481;DHT22;10399;50.754;3.366;2023-06-10T05:48:07;23.50;99.90
20481;DHT22;10399;50.754;3.366;2023-06-10T05:50:34;23.60;99.90
20481;DHT22;10399;50.754;3.366;2023-06-10T05:53:05;23.70;99.90
20481;DHT22;10399;50.754;3.366;2023-06-10T05:55:45;23.70;99.90
20481;DHT22;10399;50.754;3.366;2023-06-10T05:58:13;23.80;99.90
20481;DHT22;10399;50.754;3.366;2023-06-10T06:00:41;23.80;99.90
20481;DHT22;10399;50.754;3.366;2023-06-10T06:03:10;23.90;99.90
20481;DHT22;10399;50.754;3.366;2023-06-10T06:05:38;24.10;99.90
20481;DHT22;10399;50.754;3.366;2023-06-10T06:08:05;24.20;99.90
20481;DHT22;10399;50.754;3.366;2023-06-10T06:10:33;24.30;99.90
20481;DHT22;10399;50.754;3.366;2023-06-10T06:13:01;24.40;99.90
20481;DHT22;10399;50.754;3.366;2023-06-10T06:15:28;24.30;99.90
20481;DHT22;10399;50.754;3.366;2023-06-10T06:17:55;24.30;99.90
20481;DHT22;10399;50.754;3.366;2023-06-10T06:20:23;24.30;99.90
20481;DHT22;10399;50.754;3.366;2023-06-10T06:22:50;24.40;99.90
20481;DHT22;10399;50.754;3.366;2023-06-10T06:25:17;24.40;99.90
20481;DHT22;10399;50.754;3.366;2023-06-10T06:27:44;24.50;99.90
20481;DHT22;10399;50.754;3.366;2023-06-10T06:30:12;24.40;99.90
20481;DHT22;10399;50.754;3.366;2023-06-10T06:32:39;24.50;99.90
20481;DHT22;10399;50.754;3.366;2023-06-10T06:35:09;24.50;99.90
20481;DHT22;10399;50.754;3.366;2023-06-10T06:37:36;24.50;99.90
20481;DHT22;10399;50.754;3.366;2023-06-10T06:40:04;24.50;99.90
20481;DHT22;10399;50.754;3.366;2023-06-10T06:42:31;24.60;99.90
20481;DHT22;10399;50.754;3.366;2023-06-10T06:44:58;24.60;99.90
20481;DHT22;10399;50.754;3.366;2023-06-10T06:47:26;24.60;99.90
20481;DHT22;10399;50.754;3.366;2023-06-10T06:49:53;24.60;99.90
20481;DHT22;10399;50.754;3.366;2023-06-10T06:52:20;24.80;99.90
20481;DHT22;10399;50.754;3.366;2023-06-10T06:54:49;25.10;99.90
20481;DHT22;10399;50.754;3.366;2023-06-10T06:57:16;25.10;99.90
20481;DHT22;10399;50.754;3.366;2023-06-10T06:59:43;25.20;99.90
20481;DHT22;10399;50.754;3.366;2023-06-10T07:02:11;25.20;99.90
20481;DHT22;10399;50.754;3.366;2023-06-10T07:04:38;25.30;99.90
20481;DHT22;10399;50.754;3.366;2023-06-10T07:07:08;25.50;99.90
20481;DHT22;10399;50.754;3.366;2023-06-10T07:09:35;25.60;99.90
20481;DHT22;10399;50.754;3.366;2023-06-10T07:12:03;25.70;99.90
20481;DHT22;10399;50.754;3.366;2023-06-10T07:14:30;25.90;99.90
20481;DHT22;10399;50.754;3.366;2023-06-10T07:16:57;26.10;99.90
20481;DHT22;10399;50.754;3.366;2023-06-10T07:19:24;26.00;99.90
20481;DHT22;10399;50.754;3.366;2023-06-10T07:21:51;26.10;99.90
20481;DHT22;10399;50.754;3.366;2023-06-10T07:24:18;26.20;99.90
20481;DHT22;10399;50.754;3.366;2023-06-10T07:26:47;26.30;99.90
20481;DHT22;10399;50.754;3.366;2023-06-10T07:29:14;26.30;99.90
20481;DHT22;10399;50.754;3.366;2023-06-10T07:31:41;26.50;99.90
20481;DHT22;10399;50.754;3.366;2023-06-10T07:34:08;26.40;99.90
20481;DHT22;10399;50.754;3.366;2023-06-10T07:36:35;26.50;99.90
20481;DHT22;10399;50.754;3.366;2023-06-10T07:39:04;26.70;99.90
20481;DHT22;10399;50.754;3.366;2023-06-10T07:41:31;26.70;99.90
20481;DHT22;10399;50.754;3.366;2023-06-10T07:43:58;26.60;99.90
20481;DHT22;10399;50.754;3.366;2023-06-10T07:46:25;26.60;99.90
20481;DHT22;10399;50.754;3.366;2023-06-10T07:48:54;26.60;99.90
20481;DHT22;10399;50.754;3.366;2023-06-10T07:51:22;26.80;99.90
20481;DHT22;10399;50.754;3.366;2023-06-10T07:53:49;26.90;99.90
20481;DHT22;10399;50.754;3.366;2023-06-10T07:56:16;27.00;99.90
20481;DHT22;10399;50.754;3.366;2023-06-10T07:58:43;27.10;99.90
20481;DHT22;10399;50.754;3.366;2023-06-10T08:01:10;27.20;99.90
20481;DHT22;10399;50.754;3.366;2023-06-10T08:03:37;27.30;99.90
20481;DHT22;10399;50.754;3.366;2023-06-10T08:06:05;27.30;99.90
20481;DHT22;10399;50.754;3.366;2023-06-10T08:08:32;27.60;99.90
20481;DHT22;10399;50.754;3.366;2023-06-10T08:11:01;27.80;99.90
20481;DHT22;10399;50.754;3.366;2023-06-10T08:13:28;27.70;99.90
20481;DHT22;10399;50.754;3.366;2023-06-10T08:15:55;27.80;99.90
20481;DHT22;10399;50.754;3.366;2023-06-10T08:18:23;27.70;99.90
20481;DHT22;10399;50.754;3.366;2023-06-10T08:20:50;27.80;99.90
20481;DHT22;10399;50.754;3.366;2023-06-10T08:23:17;27.90;99.90
20481;DHT22;10399;50.754;3.366;2023-06-10T08:25:43;28.10;99.90
20481;DHT22;10399;50.754;3.366;2023-06-10T08:28:10;28.00;99.90
20481;DHT22;10399;50.754;3.366;2023-06-10T08:30:38;28.00;99.90
20481;DHT22;10399;50.754;3.366;2023-06-10T08:33:05;28.20;99.90
20481;DHT22;10399;50.754;3.366;2023-06-10T08:35:32;28.20;99.90
20481;DHT22;10399;50.754;3.366;2023-06-10T08:37:59;28.20;99.90
20481;DHT22;10399;50.754;3.366;2023-06-10T08:40:26;28.40;99.90
20481;DHT22;10399;50.754;3.366;2023-06-10T08:43:07;28.70;99.90
20481;DHT22;10399;50.754;3.366;2023-06-10T08:45:36;29.00;99.90
20481;DHT22;10399;50.754;3.366;2023-06-10T08:48:04;28.90;99.90
20481;DHT22;10399;50.754;3.366;2023-06-10T08:50:36;29.00;99.90
20481;DHT22;10399;50.754;3.366;2023-06-10T08:53:07;29.10;99.90
20481;DHT22;10399;50.754;3.366;2023-06-10T08:55:39;29.20;99.90
20481;DHT22;10399;50.754;3.366;2023-06-10T08:58:08;29.60;99.90
20481;DHT22;10399;50.754;3.366;2023-06-10T09:00:37;29.70;99.90
20481;DHT22;10399;50.754;3.366;2023-06-10T09:03:04;29.80;99.90
20481;DHT22;10399;50.754;3.366;2023-06-10T09:05:34;30.00;99.90
20481;DHT22;10399;50.754;3.366;2023-06-10T09:08:04;30.20;99.90
20481;DHT22;10399;50.754;3.366;2023-06-10T09:10:32;30.50;99.90
20481;DHT22;10399;50.754;3.366;2023-06-10T09:12:59;30.70;99.90
20481;DHT22;10399;50.754;3.366;2023-06-10T09:15:27;30.80;99.90
20481;DHT22;10399;50.754;3.366;2023-06-10T09:17:54;31.10;99.90
20481;DHT22;10399;50.754;3.366;2023-06-10T09:20:21;31.10;99.90
20481;DHT22;10399;50.754;3.366;2023-06-10T09:22:49;31.40;99.90
20481;DHT22;10399;50.754;3.366;2023-06-10T09:25:16;31.30;99.90
20481;DHT22;10399;50.754;3.366;2023-06-10T09:27:52;31.70;99.90
20481;DHT22;10399;50.754;3.366;2023-06-10T09:30:31;31.70;99.90
20481;DHT22;10399;50.754;3.366;2023-06-10T09:33:01;31.60;99.90
20481;DHT22;10399;50.754;3.366;2023-06-10T09:35:30;31.60;99.90
20481;DHT22;10399;50.754;3.366;2023-06-10T09:38:00;31.40;99.90
20481;DHT22;10399;50.754;3.366;2023-06-10T09:40:27;31.60;99.90
20481;DHT22;10399;50.754;3.366;2023-06-10T09:43:04;31.30;99.90
20481;DHT22;10399;50.754;3.366;2023-06-10T09:45:32;31.20;99.90
20481;DHT22;10399;50.754;3.366;2023-06-10T09:48:00;31.10;99.90
20481;DHT22;10399;50.754;3.366;2023-06-10T09:50:27;31.20;99.90
20481;DHT22;10399;50.754;3.366;2023-06-10T09:52:55;31.30;99.90
20481;DHT22;10399;50.754;3.366;2023-06-10T09:55:23;31.20;99.90
20481;DHT22;10399;50.754;3.366;2023-06-10T09:57:53;31.60;99.90
20481;DHT22;10399;50.754;3.366;2023-06-10T10:00:22;32.00;99.90
20481;DHT22;10399;50.754;3.366;2023-06-10T10:02:51;32.00;99.90
20481;DHT22;10399;50.754;3.366;2023-06-10T10:05:21;32.30;98.90
20481;DHT22;10399;50.754;3.366;2023-06-10T10:07:50;32.40;98.50
20481;DHT22;10399;50.754;3.366;2023-06-10T10:10:20;32.60;98.10
20481;DHT22;10399;50.754;3.366;2023-06-10T10:12:50;32.70;97.40
20481;DHT22;10399;50.754;3.366;2023-06-10T10:15:18;32.80;96.10
20481;DHT22;10399;50.754;3.366;2023-06-10T10:18:09;32.90;98.20
20481;DHT22;10399;50.754;3.366;2023-06-10T10:20:51;32.80;96.60
20481;DHT22;10399;50.754;3.366;2023-06-10T10:23:24;32.90;97.30
20481;DHT22;10399;50.754;3.366;2023-06-10T10:25:53;33.60;96.80
20481;DHT22;10399;50.754;3.366;2023-06-10T10:28:24;33.70;95.50
20481;DHT22;10399;50.754;3.366;2023-06-10T10:30:58;33.50;95.90
20481;DHT22;10399;50.754;3.366;2023-06-10T10:35:57;34.20;94.90
20481;DHT22;10399;50.754;3.366;2023-06-10T10:38:25;34.00;93.10
20481;DHT22;10399;50.754;3.366;2023-06-10T10:40:53;33.80;92.30
20481;DHT22;10399;50.754;3.366;2023-06-10T10:43:22;33.70;92.40
20481;DHT22;10399;50.754;3.366;2023-06-10T10:46:03;33.70;93.10
20481;DHT22;10399;50.754;3.366;2023-06-10T10:48:38;33.80;91.40
20481;DHT22;10399;50.754;3.366;2023-06-10T10:51:05;34.10;92.20
20481;DHT22;10399;50.754;3.366;2023-06-10T10:53:32;34.50;91.70
20481;DHT22;10399;50.754;3.366;2023-06-10T10:56:14;34.70;91.50
20481;DHT22;10399;50.754;3.366;2023-06-10T10:58:41;35.20;90.50
20481;DHT22;10399;50.754;3.366;2023-06-10T11:01:13;35.10;90.20
20481;DHT22;10399;50.754;3.366;2023-06-10T11:03:45;35.50;91.20
20481;DHT22;10399;50.754;3.366;2023-06-10T11:06:17;35.80;90.10
20481;DHT22;10399;50.754;3.366;2023-06-10T11:08:46;36.10;89.50
20481;DHT22;10399;50.754;3.366;2023-06-10T11:11:19;36.10;86.70
20481;DHT22;10399;50.754;3.366;2023-06-10T11:16:41;35.80;83.40
20481;DHT22;10399;50.754;3.366;2023-06-10T11:19:09;35.90;85.70
20481;DHT22;10399;50.754;3.366;2023-06-10T11:22:02;35.30;82.50
20481;DHT22;10399;50.754;3.366;2023-06-10T11:24:31;34.60;83.00
20481;DHT22;10399;50.754;3.366;2023-06-10T11:32:31;35.20;83.50
20481;DHT22;10399;50.754;3.366;2023-06-10T11:35:00;35.80;83.60
20481;DHT22;10399;50.754;3.366;2023-06-10T11:37:29;35.60;81.20
20481;DHT22;10399;50.754;3.366;2023-06-10T11:39:56;35.90;81.30
20481;DHT22;10399;50.754;3.366;2023-06-10T11:42:24;35.50;79.40
20481;DHT22;10399;50.754;3.366;2023-06-10T11:44:53;35.60;80.20
20481;DHT22;10399;50.754;3.366;2023-06-10T11:47:20;35.30;77.90
20481;DHT22;10399;50.754;3.366;2023-06-10T11:49:58;35.00;79.10
20481;DHT22;10399;50.754;3.366;2023-06-10T11:52:28;35.30;79.30
20481;DHT22;10399;50.754;3.366;2023-06-10T11:54:56;35.10;79.20
20481;DHT22;10399;50.754;3.366;2023-06-10T11:57:23;34.90;80.40
20481;DHT22;10399;50.754;3.366;2023-06-10T11:59:50;35.10;79.90
20481;DHT22;10399;50.754;3.366;2023-06-10T12:02:18;34.90;78.10
20481;DHT22;10399;50.754;3.366;2023-06-10T12:04:47;34.70;79.70
20481;DHT22;10399;50.754;3.366;2023-06-10T12:07:18;35.30;81.30
20481;DHT22;10399;50.754;3.366;2023-06-10T12:10:00;35.60;79.90
20481;DHT22;10399;50.754;3.366;2023-06-10T12:12:44;34.80;76.80
20481;DHT22;10399;50.754;3.366;2023-06-10T12:15:23;34.50;78.80
20481;DHT22;10399;50.754;3.366;2023-06-10T12:17:52;34.80;78.20
20481;DHT22;10399;50.754;3.366;2023-06-10T12:20:30;34.80;76.70
20481;DHT22;10399;50.754;3.366;2023-06-10T12:23:07;34.90;78.40
20481;DHT22;10399;50.754;3.366;2023-06-10T12:25:36;34.90;76.50
20481;DHT22;10399;50.754;3.366;2023-06-10T12:28:10;34.50;76.80
20481;DHT22;10399;50.754;3.366;2023-06-10T12:30:37;34.60;78.00
20481;DHT22;10399;50.754;3.366;2023-06-10T12:33:04;34.80;78.10
20481;DHT22;10399;50.754;3.366;2023-06-10T12:35:31;35.10;77.40
20481;DHT22;10399;50.754;3.366;2023-06-10T12:38:02;35.60;78.20
20481;DHT22;10399;50.754;3.366;2023-06-10T12:40:38;35.80;75.20
20481;DHT22;10399;50.754;3.366;2023-06-10T12:43:09;35.70;75.50
20481;DHT22;10399;50.754;3.366;2023-06-10T12:45:39;36.00;75.00
20481;DHT22;10399;50.754;3.366;2023-06-10T12:48:21;36.30;74.30
20481;DHT22;10399;50.754;3.366;2023-06-10T12:50:53;36.50;75.80
20481;DHT22;10399;50.754;3.366;2023-06-10T12:53:21;36.70;73.90
20481;DHT22;10399;50.754;3.366;2023-06-10T12:55:50;36.50;74.10
20481;DHT22;10399;50.754;3.366;2023-06-10T12:58:19;36.30;75.10
20481;DHT22;10399;50.754;3.366;2023-06-10T13:00:47;36.50;75.50
20481;DHT22;10399;50.754;3.366;2023-06-10T13:03:15;36.70;74.70
20481;DHT22;10399;50.754;3.366;2023-06-10T13:05:43;37.20;73.40
20481;DHT22;10399;50.754;3.366;2023-06-10T13:08:10;37.40;73.40
20481;DHT22;10399;50.754;3.366;2023-06-10T13:10:37;38.10;72.00
20481;DHT22;10399;50.754;3.366;2023-06-10T13:13:05;37.20;70.30
20481;DHT22;10399;50.754;3.366;2023-06-10T13:15:34;37.40;71.10
20481;DHT22;10399;50.754;3.366;2023-06-10T13:18:08;37.60;71.80
20481;DHT22;10399;50.754;3.366;2023-06-10T13:20:36;37.80;71.70
20481;DHT22;10399;50.754;3.366;2023-06-10T13:23:03;37.60;72.40
20481;DHT22;10399;50.754;3.366;2023-06-10T13:25:30;37.20;70.80
20481;DHT22;10399;50.754;3.366;2023-06-10T13:27:57;37.10;71.90
20481;DHT22;10399;50.754;3.366;2023-06-10T13:30:25;37.30;70.30
20481;DHT22;10399;50.754;3.366;2023-06-10T13:32:53;37.50;70.20
20481;DHT22;10399;50.754;3.366;2023-06-10T13:35:20;37.50;69.60
20481;DHT22;10399;50.754;3.366;2023-06-10T13:37:47;37.00;69.70
20481;DHT22;10399;50.754;3.366;2023-06-10T13:40:14;37.50;69.70
20481;DHT22;10399;50.754;3.366;2023-06-10T13:42:42;37.00;68.80
20481;DHT22;10399;50.754;3.366;2023-06-10T13:45:09;36.70;69.50
20481;DHT22;10399;50.754;3.366;2023-06-10T13:47:37;36.70;69.70
20481;DHT22;10399;50.754;3.366;2023-06-10T13:50:06;36.30;69.70
20481;DHT22;10399;50.754;3.366;2023-06-10T13:52:33;36.50;69.70
20481;DHT22;10399;50.754;3.366;2023-06-10T13:55:14;36.70;69.00
20481;DHT22;10399;50.754;3.366;2023-06-10T13:57:41;36.70;68.10
20481;DHT22;10399;50.754;3.366;2023-06-10T14:00:08;36.90;68.70
20481;DHT22;10399;50.754;3.366;2023-06-10T14:02:37;37.10;68.00
20481;DHT22;10399;50.754;3.366;2023-06-10T14:05:06;37.50;68.40
20481;DHT22;10399;50.754;3.366;2023-06-10T14:07:35;38.10;68.90
20481;DHT22;10399;50.754;3.366;2023-06-10T14:10:04;38.40;66.80
20481;DHT22;10399;50.754;3.366;2023-06-10T14:12:31;38.70;68.20
20481;DHT22;10399;50.754;3.366;2023-06-10T14:14:58;39.10;67.00
20481;DHT22;10399;50.754;3.366;2023-06-10T14:17:25;38.40;66.10
20481;DHT22;10399;50.754;3.366;2023-06-10T14:19:52;37.30;66.30
20481;DHT22;10399;50.754;3.366;2023-06-10T14:22:19;36.30;66.50
20481;DHT22;10399;50.754;3.366;2023-06-10T14:24:46;35.90;67.00
20481;DHT22;10399;50.754;3.366;2023-06-10T14:27:14;36.30;67.70
20481;DHT22;10399;50.754;3.366;2023-06-10T14:29:41;36.50;68.70
20481;DHT22;10399;50.754;3.366;2023-06-10T14:32:08;36.90;66.50
20481;DHT22;10399;50.754;3.366;2023-06-10T14:34:36;36.60;66.40
20481;DHT22;10399;50.754;3.366;2023-06-10T14:37:05;36.50;67.00
20481;DHT22;10399;50.754;3.366;2023-06-10T14:39:34;36.70;66.80
20481;DHT22;10399;50.754;3.366;2023-06-10T14:42:01;36.90;68.40
20481;DHT22;10399;50.754;3.366;2023-06-10T14:44:29;37.20;66.00
20481;DHT22;10399;50.754;3.366;2023-06-10T14:46:56;37.20;65.20
20481;DHT22;10399;50.754;3.366;2023-06-10T14:49:23;37.10;67.00
20481;DHT22;10399;50.754;3.366;2023-06-10T14:51:50;37.30;66.80
20481;DHT22;10399;50.754;3.366;2023-06-10T14:54:17;37.30;67.60
20481;DHT22;10399;50.754;3.366;2023-06-10T14:56:44;37.20;66.30
20481;DHT22;10399;50.754;3.366;2023-06-10T14:59:11;36.70;66.90
20481;DHT22;10399;50.754;3.366;2023-06-10T15:01:39;36.70;66.20
20481;DHT22;10399;50.754;3.366;2023-06-10T15:04:09;36.90;66.80
20481;DHT22;10399;50.754;3.366;2023-06-10T15:06:36;36.60;67.90
20481;DHT22;10399;50.754;3.366;2023-06-10T15:09:03;36.80;68.60
20481;DHT22;10399;50.754;3.366;2023-06-10T15:11:30;37.00;68.00
20481;DHT22;10399;50.754;3.366;2023-06-10T15:13:57;37.20;68.80
20481;DHT22;10399;50.754;3.366;2023-06-10T15:16:25;36.70;68.50
20481;DHT22;10399;50.754;3.366;2023-06-10T15:18:52;36.10;68.10
20481;DHT22;10399;50.754;3.366;2023-06-10T15:21:19;35.40;69.70
20481;DHT22;10399;50.754;3.366;2023-06-10T15:23:46;35.20;70.10
20481;DHT22;10399;50.754;3.366;2023-06-10T15:26:14;35.30;69.90
20481;DHT22;10399;50.754;3.366;2023-06-10T15:28:41;35.70;71.10
20481;DHT22;10399;50.754;3.366;2023-06-10T15:31:08;36.00;68.70
20481;DHT22;10399;50.754;3.366;2023-06-10T15:33:35;36.00;69.40
20481;DHT22;10399;50.754;3.366;2023-06-10T15:36:02;36.10;68.40
20481;DHT22;10399;50.754;3.366;2023-06-10T15:38:31;36.50;69.50
20481;DHT22;10399;50.754;3.366;2023-06-10T15:40:58;36.70;67.40
20481;DHT22;10399;50.754;3.366;2023-06-10T15:43:25;36.10;66.90
20481;DHT22;10399;50.754;3.366;2023-06-10T15:45:53;36.30;67.90
20481;DHT22;10399;50.754;3.366;2023-06-10T15:48:20;36.50;68.40
20481;DHT22;10399;50.754;3.366;2023-06-10T15:50:47;36.70;67.20
20481;DHT22;10399;50.754;3.366;2023-06-10T15:53:14;36.90;68.60